createdAt,value
2022-11-16T00:02:43.781Z,21.50
2022-11-16T00:07:45.940Z,22.00
2022-11-16T00:12:47.953Z,21.30
2022-11-16T00:17:49.983Z,21.73
2022-11-16T00:22:52.024Z,20.33
2022-11-16T00:27:54.052Z,21.40
2022-11-16T00:33:00.615Z,21.52
2022-11-16T00:38:02.634Z,20.57
2022-11-16T00:43:04.693Z,21.23
2022-11-16T00:48:06.719Z,21.30
2022-11-16T00:53:12.891Z,22.20
2022-11-16T00:58:15.739Z,23.50
2022-11-16T01:03:17.848Z,21.53
2022-11-16T01:08:19.881Z,21.92
2022-11-16T01:13:21.970Z,21.80
2022-11-16T01:18:24.017Z,21.97
2022-11-16T01:23:26.027Z,22.10
2022-11-16T01:28:30.400Z,21.67
2022-11-16T01:33:32.526Z,21.85
2022-11-16T01:38:34.887Z,21.42
2022-11-16T01:44:01.289Z,21.73
2022-11-16T01:49:24.149Z,24.20
2022-11-16T01:54:27.396Z,23.07
2022-11-16T01:59:30.315Z,22.15
2022-11-16T02:04:32.485Z,23.30
2022-11-16T02:09:59.370Z,22.67
2022-11-16T02:15:01.350Z,24.63
2022-11-16T02:20:29.446Z,25.90
2022-11-16T02:25:40.086Z,22.37
2022-11-16T02:30:47.131Z,22.50
2022-11-16T02:35:55.254Z,22.80
2022-11-16T02:41:02.192Z,22.87
2022-11-16T02:46:09.110Z,24.77
2022-11-16T02:51:12.012Z,24.35
2022-11-16T02:56:14.096Z,22.90
2022-11-16T03:01:24.921Z,20.03
2022-11-16T03:06:32.355Z,19.45
2022-11-16T03:11:57.382Z,21.30
2022-11-16T03:17:01.961Z,20.23
2022-11-16T03:22:12.455Z,20.12
2022-11-16T03:27:20.712Z,18.50
2022-11-16T03:32:38.988Z,18.75
2022-11-16T03:37:41.836Z,19.50
2022-11-16T03:42:45.821Z,21.40
2022-11-16T03:47:47.889Z,18.37
2022-11-16T03:52:49.915Z,17.33
2022-11-16T03:57:51.949Z,17.83
2022-11-16T04:02:53.967Z,18.00
2022-11-16T04:08:14.766Z,16.70
2022-11-16T04:13:42.314Z,17.15
2022-11-16T04:19:03.125Z,16.10
2022-11-16T04:24:14.846Z,16.73
2022-11-16T04:29:17.194Z,17.20
2022-11-16T04:34:37.843Z,16.62
2022-11-16T04:39:39.876Z,17.67
2022-11-16T04:45:00.727Z,17.07
2022-11-16T04:50:02.983Z,18.10
2022-11-16T04:55:05.564Z,18.53
2022-11-16T05:00:08.382Z,18.25
2022-11-16T05:05:10.490Z,17.95
2022-11-16T05:10:13.351Z,18.10
2022-11-16T05:15:17.648Z,18.75
2022-11-16T05:20:38.495Z,18.27
2022-11-16T05:25:40.535Z,18.48
2022-11-16T05:30:45.718Z,18.70
2022-11-16T05:35:51.067Z,18.57
2022-11-16T05:40:53.132Z,19.67
2022-11-16T05:45:55.142Z,19.10
2022-11-16T05:51:00.473Z,20.23
2022-11-16T05:56:02.620Z,20.10
2022-11-16T06:01:04.790Z,20.07
2022-11-16T06:06:07.203Z,20.50
2022-11-16T06:11:10.383Z,20.40
2022-11-16T06:16:13.465Z,19.75
2022-11-16T06:21:17.579Z,19.42
2022-11-16T06:26:19.663Z,20.50
2022-11-16T06:31:22.410Z,20.08
2022-11-16T06:36:24.709Z,20.40
2022-11-16T06:41:26.771Z,21.30
2022-11-16T06:46:28.830Z,20.42
2022-11-16T06:51:30.847Z,20.73
2022-11-16T06:56:35.092Z,20.48
2022-11-16T07:01:37.301Z,26.37
2022-11-16T07:06:39.663Z,24.27
2022-11-16T07:11:41.744Z,24.37
2022-11-16T07:21:54.602Z,22.67
2022-11-16T07:26:56.674Z,21.67
2022-11-16T07:31:58.931Z,21.67
2022-11-16T07:37:01.008Z,21.35
2022-11-16T07:42:03.060Z,22.73
2022-11-16T07:47:06.015Z,22.23
2022-11-16T07:52:11.782Z,21.90
2022-11-16T07:57:13.968Z,21.77
2022-11-16T08:02:16.132Z,23.73
2022-11-16T08:07:19.056Z,22.93
2022-11-16T08:12:21.231Z,23.73
2022-11-16T08:17:23.330Z,22.47
2022-11-16T08:22:25.381Z,20.67
2022-11-16T08:27:27.532Z,21.73
2022-11-16T08:32:30.746Z,23.17
2022-11-16T08:37:33.850Z,21.42
2022-11-16T08:42:40.758Z,22.60
2022-11-16T08:47:45.675Z,22.98
2022-11-16T08:52:48.292Z,22.80
2022-11-16T08:57:50.333Z,22.53
2022-11-16T09:02:52.417Z,22.55
2022-11-16T09:07:54.450Z,23.30
2022-11-16T09:12:56.565Z,23.15
2022-11-16T09:17:58.642Z,23.23
2022-11-16T09:23:00.765Z,23.53
2022-11-16T09:28:02.817Z,23.10
2022-11-16T09:33:04.809Z,21.87
2022-11-16T09:38:07.562Z,22.90
2022-11-16T09:43:19.405Z,22.73
2022-11-16T09:48:23.641Z,22.57
2022-11-16T09:53:42.690Z,26.35
2022-11-16T09:59:05.877Z,24.47
2022-11-16T10:04:13.064Z,23.05
2022-11-16T10:09:16.077Z,20.62
2022-11-16T10:14:40.649Z,21.57
2022-11-16T10:19:55.119Z,21.77
2022-11-16T10:25:20.506Z,22.87
2022-11-16T10:30:23.457Z,25.83
2022-11-16T10:35:40.774Z,21.15
2022-11-16T10:40:47.597Z,21.63
2022-11-16T10:46:00.026Z,20.70
2022-11-16T10:51:02.132Z,20.10
2022-11-16T10:56:23.146Z,20.62
2022-11-16T11:01:37.858Z,18.58
2022-11-16T11:06:40.494Z,19.73
2022-11-16T11:12:00.974Z,20.25
2022-11-16T11:17:12.290Z,20.90
2022-11-16T11:22:15.278Z,20.45
2022-11-16T11:27:23.174Z,19.92
2022-11-16T11:32:38.530Z,19.40
2022-11-16T11:37:40.690Z,19.90
2022-11-16T11:43:01.899Z,19.80
2022-11-16T11:48:29.062Z,19.73
2022-11-16T11:53:48.197Z,19.62
2022-11-16T11:58:51.946Z,19.30
2022-11-16T12:04:22.887Z,21.15
2022-11-16T12:09:40.815Z,21.50
2022-11-16T12:15:27.057Z,20.65
2022-11-16T12:20:47.177Z,21.50
2022-11-16T12:26:10.719Z,21.60
2022-11-16T12:31:30.899Z,21.10
2022-11-16T12:36:35.599Z,21.73
2022-11-16T12:42:02.725Z,20.50
2022-11-16T12:47:49.462Z,19.45
2022-11-16T12:52:57.773Z,19.60
2022-11-16T12:58:24.797Z,20.80
2022-11-16T13:03:42.957Z,18.40
2022-11-16T13:09:10.892Z,19.33
2022-11-16T13:14:18.166Z,21.05
2022-11-16T13:19:21.135Z,18.57
2022-11-16T13:24:40.647Z,19.42
2022-11-16T13:29:51.563Z,19.87
2022-11-16T13:34:54.644Z,19.45
2022-11-16T13:39:59.799Z,17.92
2022-11-16T13:45:13.970Z,18.73
2022-11-16T13:50:19.677Z,18.83
2022-11-16T13:55:33.393Z,17.17
2022-11-16T14:00:38.619Z,19.12
2022-11-16T14:05:43.217Z,17.25
2022-11-16T14:10:45.219Z,16.27
2022-11-16T14:16:16.614Z,16.67
2022-11-16T14:21:18.710Z,17.53
2022-11-16T14:26:41.026Z,17.98
2022-11-16T14:32:03.646Z,17.33
2022-11-16T14:37:06.067Z,17.20
2022-11-16T14:42:18.158Z,17.75
2022-11-16T14:47:28.790Z,16.77
2022-11-16T14:52:38.847Z,16.75
2022-11-16T14:57:41.233Z,18.25
2022-11-16T15:02:51.026Z,17.77
2022-11-16T15:07:59.011Z,17.35
2022-11-16T15:13:01.266Z,16.67
2022-11-16T15:18:03.231Z,17.08
2022-11-16T15:23:14.337Z,17.65
2022-11-16T15:28:28.689Z,16.63
2022-11-16T15:33:38.227Z,17.95
2022-11-16T15:38:41.801Z,17.90
2022-11-16T15:44:12.654Z,17.85
2022-11-16T15:49:33.568Z,16.80
2022-11-16T15:54:55.929Z,17.17
2022-11-16T15:59:58.209Z,16.37
2022-11-16T16:05:00.245Z,16.13
2022-11-16T16:10:24.275Z,16.50
2022-11-16T16:15:36.194Z,16.65
2022-11-16T16:20:38.392Z,16.30
2022-11-16T16:25:41.451Z,18.00
2022-11-16T16:30:45.815Z,17.30
2022-11-16T16:35:49.851Z,16.60
2022-11-16T16:40:51.959Z,16.85
2022-11-16T16:45:54.008Z,17.13
2022-11-16T16:50:56.130Z,17.23
2022-11-16T16:55:58.170Z,16.57
2022-11-16T17:01:04.968Z,17.37
2022-11-16T17:06:07.084Z,16.95
2022-11-16T17:11:10.180Z,17.27
2022-11-16T17:16:12.428Z,16.58
2022-11-16T17:21:17.460Z,16.40
2022-11-16T17:26:20.452Z,14.90
2022-11-16T17:31:23.258Z,15.10
2022-11-16T17:36:25.353Z,15.50
2022-11-16T17:41:28.110Z,14.93
2022-11-16T17:46:30.157Z,16.77
2022-11-16T17:51:32.516Z,15.77
2022-11-16T17:56:34.686Z,15.65
2022-11-16T18:01:36.981Z,15.63
2022-11-16T18:06:39.965Z,15.63
2022-11-16T18:11:42.361Z,18.20
2022-11-16T18:16:44.465Z,14.13
2022-11-16T18:21:46.924Z,14.85
2022-11-16T18:26:48.989Z,14.93
2022-11-16T18:31:51.082Z,14.70
2022-11-16T18:36:53.176Z,14.30
2022-11-16T18:41:56.351Z,13.62
2022-11-16T18:46:58.366Z,15.40
2022-11-16T18:52:00.479Z,14.50
2022-11-16T18:57:02.523Z,15.48
2022-11-16T19:02:04.621Z,13.70
2022-11-16T19:07:07.729Z,15.32
2022-11-16T19:12:09.928Z,14.65
2022-11-16T19:17:12.024Z,13.57
2022-11-16T19:22:16.658Z,14.38
2022-11-16T19:27:32.569Z,13.20
2022-11-16T19:32:34.607Z,13.15
2022-11-16T19:37:37.529Z,13.77
2022-11-16T19:42:39.661Z,12.77
2022-11-16T19:47:41.836Z,12.77
2022-11-16T19:52:48.061Z,12.50
2022-11-16T19:57:50.334Z,11.68
2022-11-16T20:02:57.407Z,12.40
2022-11-16T20:07:59.544Z,11.50
2022-11-16T20:13:01.829Z,11.90
2022-11-16T20:18:04.042Z,10.80
2022-11-16T20:23:15.760Z,11.23
2022-11-16T20:28:18.013Z,10.98
2022-11-16T20:38:40.768Z,11.10
2022-11-16T20:43:44.002Z,12.50
2022-11-16T20:48:47.162Z,11.07
2022-11-16T20:53:50.367Z,11.63
2022-11-16T20:58:52.720Z,11.97
2022-11-16T21:03:56.388Z,12.32
2022-11-16T21:08:59.092Z,12.07
2022-11-16T21:14:16.044Z,12.57
2022-11-16T21:19:18.178Z,12.45
2022-11-16T21:24:21.775Z,11.93
2022-11-16T21:29:26.085Z,12.68
2022-11-16T21:34:33.541Z,12.90
2022-11-16T21:39:38.042Z,12.23
2022-11-16T21:44:43.077Z,13.20
2022-11-16T21:50:09.808Z,13.23
2022-11-16T21:55:11.958Z,14.32
2022-11-16T22:00:14.750Z,13.17
2022-11-16T22:05:35.687Z,14.45
2022-11-16T22:10:42.388Z,14.82
2022-11-16T22:15:44.443Z,14.57
2022-11-16T22:20:48.180Z,15.75
2022-11-16T22:25:50.221Z,15.30
2022-11-16T22:31:20.322Z,14.80
2022-11-16T22:36:22.593Z,16.42
2022-11-16T22:41:25.040Z,15.00
2022-11-16T22:46:27.616Z,15.35
2022-11-16T22:51:30.827Z,14.40
2022-11-16T22:56:33.544Z,15.88
2022-11-16T23:01:36.334Z,15.95
2022-11-16T23:06:38.374Z,15.13
2022-11-16T23:11:58.980Z,16.08
2022-11-16T23:17:01.464Z,15.10
2022-11-16T23:22:22.727Z,15.95
2022-11-16T23:27:30.765Z,15.27
2022-11-16T23:32:33.173Z,15.17
2022-11-16T23:37:35.567Z,15.07
2022-11-16T23:42:56.310Z,14.83
2022-11-16T23:47:58.568Z,14.98
2022-11-16T23:53:00.675Z,14.05
2022-11-16T23:58:02.704Z,14.03
